AZU4840 SBKP-SBBE
Flight info
| Callsign | AZU4840 |
|---|---|
| Flight time | 2h 59m |
| Altitude | 37000 |
| Route | ISMOB UZ26 IROMU |
| Aircraft | A20N/M-SDE2E3FGHIRWXY/LB1 |
Departure
| Time | 2026-05-07 02:00 |
|---|---|
| Airport | Viracopos International Airport (SBKP) |
Arrival
| Time | 2026-05-07 04:59 |
|---|---|
| Airport | Val de Cans/Júlio Cezar Ribeiro International Airport (SBBE) |
| Time | Latitude | Longitude | Altitude | Speed | Heading |
|---|---|---|---|---|---|
| 2026-05-07 01:13 | -23.00467 | -47.14966 | 2162 ft | 0 kts | 37° |
| 2026-05-07 01:43 | -23.00468 | -47.14966 | 2162 ft | 1 kts | 37° |
| 2026-05-07 01:43 | -23.00488 | -47.14982 | 2154 ft | 3 kts | 34° |
| 2026-05-07 01:43 | -23.00505 | -47.14994 | 2159 ft | 3 kts | 30° |
| 2026-05-07 01:43 | -23.00517 | -47.15001 | 2155 ft | 3 kts | 26° |
| 2026-05-07 01:44 | -23.00536 | -47.15010 | 2158 ft | 3 kts | 12° |
| 2026-05-07 01:44 | -23.00554 | -47.15011 | 2159 ft | 3 kts | 330° |
| 2026-05-07 01:44 | -23.00563 | -47.15004 | 2153 ft | 1 kts | 307° |
| 2026-05-07 01:44 | -23.00563 | -47.15003 | 2153 ft | 0 kts | 307° |
| 2026-05-07 01:54 | -23.00558 | -47.15011 | 2156 ft | 4 kts | 307° |
| 2026-05-07 01:54 | -23.00529 | -47.15053 | 2155 ft | 9 kts | 307° |
| 2026-05-07 01:54 | -23.00489 | -47.15109 | 2153 ft | 10 kts | 308° |
| 2026-05-07 01:54 | -23.00447 | -47.15167 | 2162 ft | 10 kts | 308° |
| 2026-05-07 01:55 | -23.00401 | -47.15184 | 2162 ft | 7 kts | 17° |
| 2026-05-07 01:55 | -23.00367 | -47.15161 | 2162 ft | 5 kts | 36° |
| 2026-05-07 01:55 | -23.00337 | -47.15135 | 2159 ft | 7 kts | 38° |
| 2026-05-07 01:55 | -23.00286 | -47.15090 | 2157 ft | 12 kts | 39° |
| 2026-05-07 01:56 | -23.00204 | -47.15028 | 2160 ft | 16 kts | 37° |
| 2026-05-07 01:56 | -23.00120 | -47.14952 | 2162 ft | 15 kts | 38° |
| 2026-05-07 01:56 | -23.00040 | -47.14887 | 2159 ft | 13 kts | 36° |
| 2026-05-07 01:56 | -23.00000 | -47.14833 | 2160 ft | 9 kts | 57° |
| 2026-05-07 01:57 | -22.99949 | -47.14787 | 2159 ft | 10 kts | 35° |
| 2026-05-07 01:57 | -22.99900 | -47.14733 | 2158 ft | 11 kts | 60° |
| 2026-05-07 01:57 | -22.99881 | -47.14651 | 2158 ft | 10 kts | 97° |
| 2026-05-07 01:57 | -22.99897 | -47.14626 | 2159 ft | 0 kts | 126° |
| 2026-05-07 01:58 | -22.99897 | -47.14625 | 2159 ft | 0 kts | 126° |
| 2026-05-07 01:58 | -22.99899 | -47.14623 | 2160 ft | 2 kts | 126° |
| 2026-05-07 01:58 | -22.99911 | -47.14606 | 2155 ft | 4 kts | 127° |
| 2026-05-07 01:59 | -22.99932 | -47.14576 | 2156 ft | 6 kts | 128° |
| 2026-05-07 01:59 | -23.00051 | -47.14411 | 2161 ft | 63 kts | 128° |
| 2026-05-07 01:59 | -23.00473 | -47.13826 | 2159 ft | 130 kts | 128° |
| 2026-05-07 01:59 | -23.01130 | -47.12908 | 2371 ft | 161 kts | 128° |
| 2026-05-07 02:00 | -23.01833 | -47.11967 | 3171 ft | 165 kts | 128° |
| 2026-05-07 02:00 | -23.02576 | -47.11007 | 3929 ft | 166 kts | 127° |
| 2026-05-07 02:00 | -23.03317 | -47.10022 | 4559 ft | 169 kts | 126° |
| 2026-05-07 02:00 | -23.04045 | -47.09008 | 5084 ft | 176 kts | 124° |
| 2026-05-07 02:01 | -23.04639 | -47.07804 | 5427 ft | 189 kts | 102° |
| 2026-05-07 02:01 | -23.04695 | -47.06339 | 5806 ft | 203 kts | 77° |
| 2026-05-07 02:01 | -23.04060 | -47.04903 | 6060 ft | 223 kts | 49° |
| 2026-05-07 02:01 | -23.02826 | -47.03712 | 6153 ft | 253 kts | 37° |
| 2026-05-07 02:02 | -23.01359 | -47.02518 | 6496 ft | 273 kts | 36° |
| 2026-05-07 02:02 | -22.99830 | -47.01293 | 7237 ft | 273 kts | 36° |
| 2026-05-07 02:02 | -22.98301 | -47.00061 | 8001 ft | 275 kts | 36° |
| 2026-05-07 02:02 | -22.96763 | -46.98806 | 8746 ft | 278 kts | 36° |
| 2026-05-07 02:03 | -22.95211 | -46.97535 | 9500 ft | 281 kts | 36° |
| 2026-05-07 02:03 | -22.93640 | -46.96249 | 10241 ft | 284 kts | 37° |
| 2026-05-07 02:03 | -22.91921 | -46.95112 | 10608 ft | 301 kts | 20° |
| 2026-05-07 02:03 | -22.89798 | -46.94732 | 10783 ft | 322 kts | 358° |
| 2026-05-07 02:04 | -22.87560 | -46.95304 | 11052 ft | 341 kts | 335° |
| 2026-05-07 02:04 | -22.85474 | -46.96581 | 11613 ft | 347 kts | 331° |
| 2026-05-07 02:04 | -22.83367 | -46.97906 | 12193 ft | 353 kts | 331° |
| 2026-05-07 02:04 | -22.81226 | -46.99242 | 12757 ft | 358 kts | 332° |
| 2026-05-07 02:05 | -22.79042 | -47.00593 | 13316 ft | 364 kts | 332° |
| 2026-05-07 02:05 | -22.76831 | -47.01957 | 13869 ft | 369 kts | 332° |
| 2026-05-07 02:05 | -22.74567 | -47.03302 | 14361 ft | 372 kts | 334° |
| 2026-05-07 02:05 | -22.72250 | -47.04570 | 14913 ft | 374 kts | 335° |
| 2026-05-07 02:06 | -22.69905 | -47.05826 | 15441 ft | 377 kts | 335° |
| 2026-05-07 02:06 | -22.67540 | -47.07082 | 15959 ft | 380 kts | 337° |
| 2026-05-07 02:06 | -22.65060 | -47.08089 | 16473 ft | 382 kts | 345° |
| 2026-05-07 02:06 | -22.62465 | -47.08724 | 16979 ft | 384 kts | 353° |
| 2026-05-07 02:07 | -22.59804 | -47.09071 | 17484 ft | 386 kts | 354° |
| 2026-05-07 02:07 | -22.54424 | -47.09769 | 18465 ft | 393 kts | 354° |
| 2026-05-07 02:07 | -22.51697 | -47.10129 | 18882 ft | 396 kts | 354° |
| 2026-05-07 02:08 | -22.48949 | -47.10493 | 19282 ft | 400 kts | 353° |
| 2026-05-07 02:08 | -22.46177 | -47.10859 | 19682 ft | 403 kts | 353° |
| 2026-05-07 02:08 | -22.43375 | -47.11229 | 20092 ft | 407 kts | 353° |
| 2026-05-07 02:08 | -22.40552 | -47.11601 | 20492 ft | 411 kts | 353° |
| 2026-05-07 02:09 | -22.37701 | -47.11977 | 20891 ft | 414 kts | 353° |
| 2026-05-07 02:09 | -22.34826 | -47.12355 | 21291 ft | 418 kts | 353° |
| 2026-05-07 02:09 | -22.31927 | -47.12737 | 21685 ft | 422 kts | 353° |
| 2026-05-07 02:09 | -22.29003 | -47.13122 | 22067 ft | 426 kts | 353° |
| 2026-05-07 02:10 | -22.26049 | -47.13511 | 22457 ft | 429 kts | 353° |
| 2026-05-07 02:10 | -22.23072 | -47.13903 | 22851 ft | 433 kts | 353° |
| 2026-05-07 02:10 | -22.20070 | -47.14298 | 23240 ft | 436 kts | 352° |
| 2026-05-07 02:10 | -22.17043 | -47.14696 | 23625 ft | 440 kts | 352° |
| 2026-05-07 02:11 | -22.13995 | -47.15096 | 23958 ft | 443 kts | 352° |
| 2026-05-07 02:11 | -22.10919 | -47.15500 | 24293 ft | 446 kts | 352° |
| 2026-05-07 02:11 | -22.07824 | -47.15906 | 24617 ft | 450 kts | 352° |
| 2026-05-07 02:11 | -22.04707 | -47.16316 | 24929 ft | 453 kts | 352° |
| 2026-05-07 02:12 | -22.01564 | -47.16728 | 25236 ft | 456 kts | 352° |
| 2026-05-07 02:12 | -21.98401 | -47.17142 | 25547 ft | 459 kts | 352° |
| 2026-05-07 02:12 | -21.95264 | -47.17553 | 25852 ft | 462 kts | 351° |
| 2026-05-07 02:12 | -21.92058 | -47.17973 | 26156 ft | 465 kts | 351° |
| 2026-05-07 02:13 | -21.88838 | -47.18395 | 26481 ft | 467 kts | 351° |
| 2026-05-07 02:13 | -21.85602 | -47.18818 | 26761 ft | 471 kts | 351° |
| 2026-05-07 02:13 | -21.82336 | -47.19246 | 27016 ft | 474 kts | 351° |
| 2026-05-07 02:13 | -21.79050 | -47.19676 | 27292 ft | 477 kts | 351° |
| 2026-05-07 02:14 | -21.75748 | -47.20109 | 27577 ft | 480 kts | 351° |
| 2026-05-07 02:14 | -21.72428 | -47.20545 | 27855 ft | 482 kts | 351° |
| 2026-05-07 02:14 | -21.69085 | -47.20986 | 28109 ft | 485 kts | 351° |
| 2026-05-07 02:14 | -21.65726 | -47.21428 | 28393 ft | 488 kts | 350° |
| 2026-05-07 02:15 | -21.62349 | -47.21872 | 28651 ft | 491 kts | 350° |
| 2026-05-07 02:15 | -21.58949 | -47.22319 | 28909 ft | 494 kts | 350° |
| 2026-05-07 02:15 | -21.55530 | -47.22768 | 29161 ft | 496 kts | 350° |
| 2026-05-07 02:15 | -21.52096 | -47.23219 | 29426 ft | 498 kts | 350° |
| 2026-05-07 02:16 | -21.48646 | -47.23672 | 29658 ft | 501 kts | 350° |
| 2026-05-07 02:16 | -21.45179 | -47.24126 | 29904 ft | 503 kts | 350° |
| 2026-05-07 02:16 | -21.41692 | -47.24583 | 30159 ft | 506 kts | 350° |
| 2026-05-07 02:16 | -21.38191 | -47.25041 | 30386 ft | 508 kts | 350° |
| 2026-05-07 02:17 | -21.34677 | -47.25506 | 30621 ft | 510 kts | 349° |
| 2026-05-07 02:17 | -21.31166 | -47.26060 | 30864 ft | 511 kts | 347° |
| 2026-05-07 02:17 | -21.27651 | -47.26668 | 31100 ft | 512 kts | 347° |
| 2026-05-07 02:17 | -21.24132 | -47.27282 | 31370 ft | 513 kts | 347° |
| 2026-05-07 02:18 | -21.20612 | -47.27887 | 31679 ft | 513 kts | 347° |
| 2026-05-07 02:18 | -21.17091 | -47.28483 | 31986 ft | 512 kts | 348° |
| 2026-05-07 02:18 | -21.13569 | -47.29074 | 32289 ft | 512 kts | 348° |
| 2026-05-07 02:18 | -21.10055 | -47.29660 | 32579 ft | 511 kts | 348° |
| 2026-05-07 02:19 | -21.06543 | -47.30245 | 32865 ft | 511 kts | 348° |
| 2026-05-07 02:19 | -21.03032 | -47.30830 | 33165 ft | 510 kts | 348° |
| 2026-05-07 02:19 | -20.99525 | -47.31414 | 33419 ft | 510 kts | 348° |
| 2026-05-07 02:19 | -20.96023 | -47.31997 | 33698 ft | 509 kts | 347° |
| 2026-05-07 02:20 | -20.92529 | -47.32578 | 33976 ft | 508 kts | 347° |
| 2026-05-07 02:20 | -20.89034 | -47.33160 | 34207 ft | 508 kts | 347° |
| 2026-05-07 02:20 | -20.85545 | -47.33741 | 34420 ft | 507 kts | 347° |
| 2026-05-07 02:20 | -20.82108 | -47.34313 | 34635 ft | 507 kts | 347° |
| 2026-05-07 02:21 | -20.78624 | -47.34892 | 34843 ft | 506 kts | 347° |
| 2026-05-07 02:21 | -20.75146 | -47.35470 | 35034 ft | 506 kts | 347° |
| 2026-05-07 02:21 | -20.71670 | -47.36046 | 35225 ft | 505 kts | 347° |
| 2026-05-07 02:21 | -20.68193 | -47.36623 | 35390 ft | 505 kts | 347° |
| 2026-05-07 02:22 | -20.64719 | -47.37199 | 35557 ft | 506 kts | 347° |
| 2026-05-07 02:22 | -20.61240 | -47.37776 | 35728 ft | 505 kts | 347° |
| 2026-05-07 02:22 | -20.57768 | -47.38350 | 35913 ft | 505 kts | 347° |
| 2026-05-07 02:22 | -20.54296 | -47.38895 | 36104 ft | 504 kts | 348° |
| 2026-05-07 02:23 | -20.50829 | -47.39411 | 36300 ft | 503 kts | 348° |
| 2026-05-07 02:23 | -20.47368 | -47.39923 | 36442 ft | 503 kts | 348° |
| 2026-05-07 02:23 | -20.43906 | -47.40437 | 36580 ft | 502 kts | 348° |
| 2026-05-07 02:23 | -20.40444 | -47.40955 | 36716 ft | 502 kts | 348° |
| 2026-05-07 02:24 | -20.33520 | -47.41999 | 36944 ft | 502 kts | 348° |
| 2026-05-07 02:24 | -20.30064 | -47.42518 | 37079 ft | 502 kts | 348° |
| 2026-05-07 02:24 | -20.26607 | -47.43037 | 37134 ft | 502 kts | 347° |
| 2026-05-07 02:25 | -20.19693 | -47.44074 | 37133 ft | 501 kts | 347° |
| 2026-05-07 02:25 | -20.12798 | -47.45107 | 37132 ft | 501 kts | 347° |
| 2026-05-07 02:26 | -20.05882 | -47.46146 | 37136 ft | 502 kts | 347° |
| 2026-05-07 02:26 | -19.98987 | -47.47179 | 37124 ft | 499 kts | 347° |
| 2026-05-07 02:27 | -19.92114 | -47.48210 | 37124 ft | 498 kts | 347° |
| 2026-05-07 02:27 | -19.85249 | -47.49236 | 37124 ft | 498 kts | 347° |
| 2026-05-07 02:28 | -19.79542 | -47.50089 | 37119 ft | 498 kts | 347° |
| 2026-05-07 02:28 | -19.72678 | -47.51112 | 37124 ft | 498 kts | 348° |
| 2026-05-07 02:29 | -19.65815 | -47.52115 | 37136 ft | 498 kts | 348° |
| 2026-05-07 02:29 | -19.58947 | -47.53117 | 37140 ft | 498 kts | 348° |
| 2026-05-07 02:30 | -19.52075 | -47.54121 | 37140 ft | 498 kts | 348° |
| 2026-05-07 02:30 | -19.45207 | -47.55124 | 37144 ft | 498 kts | 348° |
| 2026-05-07 02:31 | -19.38333 | -47.56128 | 37145 ft | 499 kts | 348° |
| 2026-05-07 02:31 | -19.31446 | -47.57132 | 37146 ft | 500 kts | 348° |
| 2026-05-07 02:32 | -19.24558 | -47.58135 | 37145 ft | 500 kts | 348° |
| 2026-05-07 02:32 | -19.17666 | -47.59138 | 37148 ft | 500 kts | 348° |
| 2026-05-07 02:33 | -19.10784 | -47.60138 | 37144 ft | 498 kts | 348° |
| 2026-05-07 02:33 | -19.03923 | -47.61135 | 37144 ft | 498 kts | 348° |
| 2026-05-07 02:34 | -18.97061 | -47.62106 | 37143 ft | 497 kts | 348° |
| 2026-05-07 02:34 | -18.90246 | -47.63046 | 37140 ft | 498 kts | 348° |
| 2026-05-07 02:35 | -18.83379 | -47.63998 | 37141 ft | 498 kts | 348° |
| 2026-05-07 02:35 | -18.76514 | -47.64951 | 37131 ft | 497 kts | 348° |
| 2026-05-07 02:36 | -18.69657 | -47.65903 | 37141 ft | 497 kts | 348° |
| 2026-05-07 02:36 | -18.62797 | -47.66854 | 37131 ft | 497 kts | 348° |
| 2026-05-07 02:37 | -18.55940 | -47.67826 | 37130 ft | 497 kts | 348° |
| 2026-05-07 02:37 | -18.49095 | -47.68840 | 37128 ft | 496 kts | 348° |
| 2026-05-07 02:38 | -18.42255 | -47.69848 | 37125 ft | 496 kts | 348° |
| 2026-05-07 02:38 | -18.35410 | -47.70851 | 37125 ft | 496 kts | 348° |
| 2026-05-07 02:39 | -18.28569 | -47.71860 | 37117 ft | 496 kts | 347° |
| 2026-05-07 02:39 | -18.21764 | -47.73003 | 37123 ft | 495 kts | 346° |
| 2026-05-07 02:40 | -18.14965 | -47.74167 | 37120 ft | 495 kts | 347° |
| 2026-05-07 02:40 | -18.08168 | -47.75312 | 37123 ft | 495 kts | 347° |
| 2026-05-07 02:41 | -18.01374 | -47.76449 | 37129 ft | 494 kts | 347° |
| 2026-05-07 02:41 | -17.94588 | -47.77584 | 37127 ft | 494 kts | 347° |
| 2026-05-07 02:42 | -17.87808 | -47.78717 | 37125 ft | 493 kts | 347° |
| 2026-05-07 02:42 | -17.81032 | -47.79848 | 37121 ft | 493 kts | 347° |
| 2026-05-07 02:43 | -17.74270 | -47.80976 | 37129 ft | 492 kts | 347° |
| 2026-05-07 02:43 | -17.67518 | -47.82101 | 37126 ft | 491 kts | 347° |
| 2026-05-07 02:44 | -17.60766 | -47.83226 | 37124 ft | 491 kts | 347° |
| 2026-05-07 02:44 | -17.54020 | -47.84349 | 37119 ft | 490 kts | 347° |
| 2026-05-07 02:45 | -17.47283 | -47.85470 | 37124 ft | 490 kts | 347° |
| 2026-05-07 02:45 | -17.40552 | -47.86589 | 37122 ft | 490 kts | 347° |
| 2026-05-07 02:46 | -17.33824 | -47.87706 | 37119 ft | 489 kts | 347° |
| 2026-05-07 02:46 | -17.27145 | -47.88814 | 37119 ft | 489 kts | 347° |
| 2026-05-07 02:47 | -17.20391 | -47.89934 | 37115 ft | 488 kts | 347° |
| 2026-05-07 02:47 | -17.13682 | -47.91047 | 37114 ft | 488 kts | 347° |
| 2026-05-07 02:48 | -17.07018 | -47.92150 | 37114 ft | 488 kts | 347° |
| 2026-05-07 02:48 | -17.00314 | -47.93259 | 37132 ft | 487 kts | 347° |
| 2026-05-07 02:49 | -16.93612 | -47.94368 | 37122 ft | 487 kts | 347° |
| 2026-05-07 02:49 | -16.86916 | -47.95475 | 37123 ft | 487 kts | 347° |
| 2026-05-07 02:50 | -16.80221 | -47.96580 | 37123 ft | 487 kts | 347° |
| 2026-05-07 02:50 | -16.73521 | -47.97686 | 37124 ft | 487 kts | 347° |
| 2026-05-07 02:51 | -16.66821 | -47.98790 | 37124 ft | 487 kts | 347° |
| 2026-05-07 02:51 | -16.60118 | -47.99895 | 37124 ft | 488 kts | 347° |
| 2026-05-07 02:52 | -16.53421 | -48.00997 | 37132 ft | 487 kts | 347° |
| 2026-05-07 02:52 | -16.46742 | -48.02096 | 37123 ft | 485 kts | 347° |
| 2026-05-07 02:53 | -16.40065 | -48.03194 | 37124 ft | 486 kts | 347° |
| 2026-05-07 02:53 | -16.33386 | -48.04291 | 37125 ft | 486 kts | 347° |
| 2026-05-07 02:54 | -16.26716 | -48.05386 | 37123 ft | 484 kts | 347° |
| 2026-05-07 02:54 | -16.20074 | -48.06476 | 37111 ft | 482 kts | 347° |
| 2026-05-07 02:55 | -16.13456 | -48.07561 | 37149 ft | 481 kts | 347° |
| 2026-05-07 02:55 | -16.06803 | -48.08653 | 37153 ft | 486 kts | 347° |
| 2026-05-07 02:56 | -16.00149 | -48.09741 | 37168 ft | 483 kts | 347° |
| 2026-05-07 02:56 | -15.93498 | -48.10830 | 37183 ft | 484 kts | 347° |
| 2026-05-07 02:57 | -15.86849 | -48.11917 | 37178 ft | 484 kts | 347° |
| 2026-05-07 02:57 | -15.80196 | -48.13004 | 37177 ft | 484 kts | 347° |
| 2026-05-07 02:58 | -15.73545 | -48.14090 | 37171 ft | 484 kts | 347° |
| 2026-05-07 02:58 | -15.66891 | -48.15176 | 37148 ft | 484 kts | 347° |
| 2026-05-07 02:59 | -15.60235 | -48.16262 | 37129 ft | 484 kts | 347° |
| 2026-05-07 02:59 | -15.53582 | -48.17346 | 37103 ft | 484 kts | 347° |
| 2026-05-07 03:00 | -15.46909 | -48.18190 | 37113 ft | 485 kts | 355° |
| 2026-05-07 03:00 | -15.40151 | -48.18386 | 37119 ft | 486 kts | 355° |
| 2026-05-07 03:01 | -15.33436 | -48.18597 | 37103 ft | 486 kts | 355° |
| 2026-05-07 03:01 | -15.26684 | -48.18810 | 37096 ft | 485 kts | 355° |
| 2026-05-07 03:02 | -15.19964 | -48.19020 | 37086 ft | 482 kts | 355° |
| 2026-05-07 03:02 | -15.13279 | -48.19231 | 37096 ft | 481 kts | 355° |
| 2026-05-07 03:03 | -15.06553 | -48.19443 | 37099 ft | 485 kts | 355° |
| 2026-05-07 03:03 | -14.99819 | -48.19653 | 37103 ft | 483 kts | 355° |
| 2026-05-07 03:04 | -14.93098 | -48.19863 | 37099 ft | 483 kts | 354° |
| 2026-05-07 03:04 | -14.86375 | -48.20060 | 37102 ft | 483 kts | 355° |
| 2026-05-07 03:05 | -14.79653 | -48.20244 | 37095 ft | 483 kts | 355° |
| 2026-05-07 03:05 | -14.72936 | -48.20430 | 37094 ft | 483 kts | 355° |
| 2026-05-07 03:06 | -14.66223 | -48.20617 | 37090 ft | 482 kts | 355° |
| 2026-05-07 03:06 | -14.59519 | -48.20804 | 37079 ft | 482 kts | 355° |
| 2026-05-07 03:07 | -14.52809 | -48.20992 | 37080 ft | 482 kts | 355° |
| 2026-05-07 03:07 | -14.46102 | -48.21179 | 37074 ft | 482 kts | 355° |
| 2026-05-07 03:08 | -14.39394 | -48.21365 | 37070 ft | 482 kts | 355° |
| 2026-05-07 03:08 | -14.32691 | -48.21552 | 37065 ft | 482 kts | 354° |
| 2026-05-07 03:09 | -14.25986 | -48.21739 | 37060 ft | 482 kts | 355° |
| 2026-05-07 03:09 | -14.19283 | -48.21925 | 37061 ft | 482 kts | 354° |
| 2026-05-07 03:10 | -14.12572 | -48.22112 | 37058 ft | 482 kts | 354° |
| 2026-05-07 03:10 | -14.05863 | -48.22298 | 37058 ft | 483 kts | 354° |
| 2026-05-07 03:11 | -13.99147 | -48.22485 | 37057 ft | 483 kts | 355° |
| 2026-05-07 03:11 | -13.92429 | -48.22671 | 37059 ft | 483 kts | 355° |
| 2026-05-07 03:12 | -13.85759 | -48.22856 | 37062 ft | 483 kts | 355° |
| 2026-05-07 03:12 | -13.79043 | -48.23043 | 37056 ft | 483 kts | 354° |
| 2026-05-07 03:13 | -13.72336 | -48.23233 | 37049 ft | 482 kts | 355° |
| 2026-05-07 03:13 | -13.65646 | -48.23415 | 37051 ft | 480 kts | 355° |
| 2026-05-07 03:14 | -13.58977 | -48.23597 | 37050 ft | 480 kts | 354° |
| 2026-05-07 03:15 | -13.48970 | -48.23874 | 37051 ft | 479 kts | 354° |
| 2026-05-07 03:15 | -13.43381 | -48.24029 | 37051 ft | 480 kts | 354° |
| 2026-05-07 03:16 | -13.36723 | -48.24212 | 37042 ft | 477 kts | 354° |
| 2026-05-07 03:16 | -13.30136 | -48.24393 | 37025 ft | 475 kts | 354° |
| 2026-05-07 03:17 | -13.23532 | -48.24576 | 37044 ft | 476 kts | 354° |
| 2026-05-07 03:17 | -13.16876 | -48.24761 | 37040 ft | 479 kts | 354° |
| 2026-05-07 03:18 | -13.10233 | -48.24943 | 37027 ft | 476 kts | 354° |
| 2026-05-07 03:18 | -13.03597 | -48.25126 | 37031 ft | 477 kts | 354° |
| 2026-05-07 03:19 | -12.96956 | -48.25309 | 37033 ft | 477 kts | 354° |
| 2026-05-07 03:19 | -12.90319 | -48.25491 | 37032 ft | 477 kts | 354° |
| 2026-05-07 03:20 | -12.83681 | -48.25674 | 37034 ft | 477 kts | 354° |
| 2026-05-07 03:20 | -12.77042 | -48.25856 | 37022 ft | 477 kts | 354° |
| 2026-05-07 03:21 | -12.70406 | -48.26039 | 37023 ft | 477 kts | 354° |
| 2026-05-07 03:21 | -12.63768 | -48.26221 | 37016 ft | 477 kts | 354° |
| 2026-05-07 03:22 | -12.57135 | -48.26403 | 37022 ft | 477 kts | 354° |
| 2026-05-07 03:22 | -12.50501 | -48.26585 | 37014 ft | 477 kts | 354° |
| 2026-05-07 03:23 | -12.43876 | -48.26767 | 37013 ft | 476 kts | 354° |
| 2026-05-07 03:23 | -12.37250 | -48.26947 | 37013 ft | 476 kts | 354° |
| 2026-05-07 03:24 | -12.30673 | -48.27127 | 37012 ft | 476 kts | 354° |
| 2026-05-07 03:24 | -12.24055 | -48.27307 | 37009 ft | 476 kts | 354° |
| 2026-05-07 03:25 | -12.17431 | -48.27487 | 37008 ft | 476 kts | 354° |
| 2026-05-07 03:25 | -12.10814 | -48.27667 | 37008 ft | 476 kts | 354° |
| 2026-05-07 03:26 | -12.04197 | -48.27847 | 37009 ft | 475 kts | 355° |
| 2026-05-07 03:26 | -11.97588 | -48.28026 | 37010 ft | 475 kts | 355° |
| 2026-05-07 03:27 | -11.90980 | -48.28206 | 36999 ft | 475 kts | 355° |
| 2026-05-07 03:27 | -11.84379 | -48.28385 | 37003 ft | 475 kts | 355° |
| 2026-05-07 03:28 | -11.77782 | -48.28565 | 37014 ft | 474 kts | 355° |
| 2026-05-07 03:28 | -11.71190 | -48.28743 | 37011 ft | 474 kts | 355° |
| 2026-05-07 03:29 | -11.64605 | -48.28923 | 36997 ft | 473 kts | 355° |
| 2026-05-07 03:29 | -11.58028 | -48.29104 | 36994 ft | 473 kts | 355° |
| 2026-05-07 03:30 | -11.51456 | -48.29285 | 37005 ft | 472 kts | 355° |
| 2026-05-07 03:30 | -11.44890 | -48.29465 | 36987 ft | 472 kts | 355° |
| 2026-05-07 03:31 | -11.38327 | -48.29645 | 36991 ft | 472 kts | 355° |
| 2026-05-07 03:31 | -11.31763 | -48.29825 | 36992 ft | 472 kts | 355° |
| 2026-05-07 03:32 | -11.25209 | -48.30077 | 36993 ft | 470 kts | 353° |
| 2026-05-07 03:32 | -11.18683 | -48.30546 | 37002 ft | 470 kts | 352° |
| 2026-05-07 03:33 | -11.12156 | -48.31002 | 36997 ft | 470 kts | 352° |
| 2026-05-07 03:33 | -11.05627 | -48.31435 | 36996 ft | 470 kts | 353° |
| 2026-05-07 03:34 | -10.99097 | -48.31861 | 36999 ft | 470 kts | 353° |
| 2026-05-07 03:34 | -10.92573 | -48.32273 | 37000 ft | 470 kts | 353° |
| 2026-05-07 03:35 | -10.86037 | -48.32634 | 36998 ft | 470 kts | 353° |
| 2026-05-07 03:35 | -10.79505 | -48.32995 | 36996 ft | 470 kts | 353° |
| 2026-05-07 03:36 | -10.72971 | -48.33362 | 36997 ft | 470 kts | 353° |
| 2026-05-07 03:36 | -10.66438 | -48.33731 | 37006 ft | 470 kts | 353° |
| 2026-05-07 03:37 | -10.59905 | -48.34098 | 37002 ft | 470 kts | 353° |
| 2026-05-07 03:37 | -10.53418 | -48.34463 | 37013 ft | 470 kts | 353° |
| 2026-05-07 03:38 | -10.46889 | -48.34830 | 37017 ft | 470 kts | 353° |
| 2026-05-07 03:38 | -10.40365 | -48.35197 | 37027 ft | 469 kts | 353° |
| 2026-05-07 03:39 | -10.33847 | -48.35564 | 37025 ft | 469 kts | 353° |
| 2026-05-07 03:39 | -10.27328 | -48.35927 | 37024 ft | 469 kts | 354° |
| 2026-05-07 03:40 | -10.20794 | -48.36028 | 37023 ft | 470 kts | 356° |
| 2026-05-07 03:40 | -10.14263 | -48.36077 | 37021 ft | 469 kts | 356° |
| 2026-05-07 03:41 | -10.07737 | -48.36160 | 37012 ft | 469 kts | 356° |
| 2026-05-07 03:41 | -10.01222 | -48.36254 | 37003 ft | 468 kts | 356° |
| 2026-05-07 03:42 | -9.94705 | -48.36350 | 36994 ft | 468 kts | 356° |
| 2026-05-07 03:42 | -9.88197 | -48.36444 | 36992 ft | 467 kts | 356° |
| 2026-05-07 03:43 | -9.81694 | -48.36539 | 36986 ft | 467 kts | 356° |
| 2026-05-07 03:43 | -9.75193 | -48.36628 | 36986 ft | 467 kts | 356° |
| 2026-05-07 03:44 | -9.68695 | -48.36697 | 36980 ft | 467 kts | 356° |
| 2026-05-07 03:44 | -9.62194 | -48.36767 | 36979 ft | 467 kts | 356° |
| 2026-05-07 03:45 | -9.55694 | -48.36852 | 36981 ft | 467 kts | 356° |
| 2026-05-07 03:45 | -9.49197 | -48.36944 | 36981 ft | 467 kts | 356° |
| 2026-05-07 03:46 | -9.42696 | -48.37035 | 36983 ft | 467 kts | 356° |
| 2026-05-07 03:46 | -9.36200 | -48.37124 | 36982 ft | 467 kts | 356° |
| 2026-05-07 03:47 | -9.29703 | -48.37213 | 36985 ft | 467 kts | 356° |
| 2026-05-07 03:47 | -9.23253 | -48.37301 | 36982 ft | 466 kts | 356° |
| 2026-05-07 03:48 | -9.16764 | -48.37390 | 36981 ft | 466 kts | 356° |
| 2026-05-07 03:48 | -9.10275 | -48.37479 | 36981 ft | 466 kts | 356° |
| 2026-05-07 03:49 | -9.03790 | -48.37568 | 36981 ft | 466 kts | 356° |
| 2026-05-07 03:49 | -8.97305 | -48.37657 | 36979 ft | 466 kts | 356° |
| 2026-05-07 03:50 | -8.90829 | -48.37745 | 36981 ft | 466 kts | 356° |
| 2026-05-07 03:50 | -8.84350 | -48.37834 | 36980 ft | 465 kts | 356° |
| 2026-05-07 03:51 | -8.77873 | -48.37922 | 36974 ft | 465 kts | 356° |
| 2026-05-07 03:51 | -8.71398 | -48.38011 | 36975 ft | 465 kts | 356° |
| 2026-05-07 03:52 | -8.64922 | -48.38099 | 36975 ft | 465 kts | 356° |
| 2026-05-07 03:52 | -8.58449 | -48.38191 | 36975 ft | 465 kts | 356° |
| 2026-05-07 03:53 | -8.51978 | -48.38288 | 36973 ft | 465 kts | 356° |
| 2026-05-07 03:53 | -8.45551 | -48.38383 | 36975 ft | 465 kts | 356° |
| 2026-05-07 03:54 | -8.39037 | -48.38479 | 36975 ft | 465 kts | 356° |
| 2026-05-07 03:54 | -8.32611 | -48.38567 | 36973 ft | 465 kts | 356° |
| 2026-05-07 03:55 | -8.26144 | -48.38655 | 36975 ft | 465 kts | 356° |
| 2026-05-07 03:55 | -8.19672 | -48.38744 | 36975 ft | 465 kts | 356° |
| 2026-05-07 03:56 | -8.13207 | -48.38832 | 36978 ft | 465 kts | 356° |
| 2026-05-07 03:56 | -8.06742 | -48.38919 | 36977 ft | 465 kts | 357° |
| 2026-05-07 03:57 | -8.00277 | -48.39006 | 36972 ft | 464 kts | 356° |
| 2026-05-07 03:57 | -7.93818 | -48.39093 | 36971 ft | 464 kts | 357° |
| 2026-05-07 03:58 | -7.87355 | -48.39180 | 36973 ft | 464 kts | 357° |
| 2026-05-07 03:58 | -7.80897 | -48.39266 | 36973 ft | 464 kts | 357° |
| 2026-05-07 03:59 | -7.74440 | -48.39353 | 36972 ft | 464 kts | 357° |
| 2026-05-07 03:59 | -7.67983 | -48.39440 | 36971 ft | 464 kts | 357° |
| 2026-05-07 04:00 | -7.61532 | -48.39527 | 36979 ft | 464 kts | 357° |
| 2026-05-07 04:00 | -7.55083 | -48.39613 | 36978 ft | 463 kts | 357° |
| 2026-05-07 04:01 | -7.48632 | -48.39699 | 36975 ft | 463 kts | 357° |
| 2026-05-07 04:01 | -7.42191 | -48.39786 | 36974 ft | 463 kts | 357° |
| 2026-05-07 04:02 | -7.35751 | -48.39872 | 36977 ft | 463 kts | 357° |
| 2026-05-07 04:02 | -7.30402 | -48.39944 | 36976 ft | 462 kts | 357° |
| 2026-05-07 04:03 | -7.23974 | -48.40030 | 36967 ft | 462 kts | 357° |
| 2026-05-07 04:03 | -7.17546 | -48.40116 | 36966 ft | 462 kts | 357° |
| 2026-05-07 04:04 | -7.11120 | -48.40202 | 36965 ft | 461 kts | 357° |
| 2026-05-07 04:04 | -7.04703 | -48.40289 | 36968 ft | 461 kts | 357° |
| 2026-05-07 04:05 | -6.98288 | -48.40374 | 36963 ft | 461 kts | 357° |
| 2026-05-07 04:05 | -6.91884 | -48.40460 | 36962 ft | 460 kts | 357° |
| 2026-05-07 04:06 | -6.85476 | -48.40546 | 36962 ft | 460 kts | 357° |
| 2026-05-07 04:06 | -6.79070 | -48.40632 | 36965 ft | 460 kts | 357° |
| 2026-05-07 04:07 | -6.72669 | -48.40717 | 36967 ft | 460 kts | 357° |
| 2026-05-07 04:07 | -6.66312 | -48.40802 | 36965 ft | 460 kts | 357° |
| 2026-05-07 04:08 | -6.59914 | -48.40887 | 36963 ft | 460 kts | 357° |
| 2026-05-07 04:08 | -6.53519 | -48.40973 | 36958 ft | 460 kts | 357° |
| 2026-05-07 04:09 | -6.47128 | -48.41058 | 36966 ft | 459 kts | 357° |
| 2026-05-07 04:09 | -6.40696 | -48.41144 | 36965 ft | 459 kts | 357° |
| 2026-05-07 04:10 | -6.34359 | -48.41228 | 36963 ft | 459 kts | 357° |
| 2026-05-07 04:10 | -6.27978 | -48.41313 | 36958 ft | 458 kts | 357° |
| 2026-05-07 04:11 | -6.21607 | -48.41399 | 36960 ft | 458 kts | 357° |
| 2026-05-07 04:11 | -6.15235 | -48.41484 | 36957 ft | 457 kts | 357° |
| 2026-05-07 04:12 | -6.08873 | -48.41569 | 36956 ft | 457 kts | 357° |
| 2026-05-07 04:12 | -6.02513 | -48.41654 | 36952 ft | 457 kts | 357° |
| 2026-05-07 04:13 | -5.96155 | -48.41739 | 36951 ft | 457 kts | 357° |
| 2026-05-07 04:13 | -5.89799 | -48.41824 | 36950 ft | 457 kts | 357° |
| 2026-05-07 04:14 | -5.83448 | -48.41909 | 36949 ft | 456 kts | 357° |
| 2026-05-07 04:14 | -5.77094 | -48.41994 | 36950 ft | 457 kts | 357° |
| 2026-05-07 04:15 | -5.70742 | -48.42078 | 36949 ft | 457 kts | 357° |
| 2026-05-07 04:15 | -5.64388 | -48.42164 | 36956 ft | 456 kts | 358° |
| 2026-05-07 04:16 | -5.58037 | -48.42248 | 36959 ft | 457 kts | 358° |
| 2026-05-07 04:16 | -5.51681 | -48.42332 | 36958 ft | 457 kts | 358° |
| 2026-05-07 04:17 | -5.45324 | -48.42417 | 36957 ft | 457 kts | 358° |
| 2026-05-07 04:17 | -5.38964 | -48.42503 | 36961 ft | 457 kts | 358° |
| 2026-05-07 04:18 | -5.32607 | -48.42588 | 36964 ft | 457 kts | 358° |
| 2026-05-07 04:18 | -5.26254 | -48.42672 | 36963 ft | 457 kts | 358° |
| 2026-05-07 04:19 | -5.19898 | -48.42757 | 36966 ft | 457 kts | 358° |
| 2026-05-07 04:19 | -5.13539 | -48.42842 | 36964 ft | 457 kts | 358° |
| 2026-05-07 04:20 | -5.07191 | -48.42927 | 36971 ft | 456 kts | 358° |
| 2026-05-07 04:20 | -5.00887 | -48.43012 | 36975 ft | 456 kts | 358° |
| 2026-05-07 04:21 | -4.91365 | -48.43140 | 36971 ft | 456 kts | 358° |
| 2026-05-07 04:21 | -4.85025 | -48.43226 | 36975 ft | 456 kts | 358° |
| 2026-05-07 04:22 | -4.78682 | -48.43311 | 36976 ft | 456 kts | 358° |
| 2026-05-07 04:22 | -4.72346 | -48.43396 | 36975 ft | 455 kts | 358° |
| 2026-05-07 04:23 | -4.66012 | -48.43482 | 36977 ft | 455 kts | 358° |
| 2026-05-07 04:23 | -4.59678 | -48.43567 | 36977 ft | 455 kts | 358° |
| 2026-05-07 04:24 | -4.53342 | -48.43653 | 36980 ft | 455 kts | 358° |
| 2026-05-07 04:24 | -4.47015 | -48.43738 | 36980 ft | 455 kts | 358° |
| 2026-05-07 04:25 | -4.40682 | -48.43823 | 36975 ft | 455 kts | 358° |
| 2026-05-07 04:25 | -4.34355 | -48.43908 | 36976 ft | 455 kts | 358° |
| 2026-05-07 04:26 | -4.28023 | -48.43993 | 36974 ft | 455 kts | 358° |
| 2026-05-07 04:26 | -4.21693 | -48.44079 | 36977 ft | 455 kts | 358° |
| 2026-05-07 04:27 | -4.15365 | -48.44164 | 36981 ft | 455 kts | 358° |
| 2026-05-07 04:27 | -4.09034 | -48.44249 | 36984 ft | 455 kts | 358° |
| 2026-05-07 04:28 | -4.02702 | -48.44334 | 36979 ft | 455 kts | 358° |
| 2026-05-07 04:28 | -3.96378 | -48.44420 | 36979 ft | 454 kts | 358° |
| 2026-05-07 04:29 | -3.90057 | -48.44505 | 36978 ft | 454 kts | 358° |
| 2026-05-07 04:29 | -3.83740 | -48.44590 | 36981 ft | 454 kts | 358° |
| 2026-05-07 04:30 | -3.77419 | -48.44675 | 36979 ft | 454 kts | 358° |
| 2026-05-07 04:30 | -3.71149 | -48.44760 | 36974 ft | 454 kts | 358° |
| 2026-05-07 04:31 | -3.64841 | -48.44845 | 36979 ft | 453 kts | 359° |
| 2026-05-07 04:31 | -3.58534 | -48.44930 | 36978 ft | 453 kts | 359° |
| 2026-05-07 04:32 | -3.52230 | -48.45015 | 36973 ft | 453 kts | 359° |
| 2026-05-07 04:32 | -3.45937 | -48.44781 | 36970 ft | 453 kts | 5° |
| 2026-05-07 04:33 | -3.39663 | -48.44220 | 36952 ft | 453 kts | 5° |
| 2026-05-07 04:33 | -3.33380 | -48.43669 | 36950 ft | 453 kts | 5° |
| 2026-05-07 04:34 | -3.27095 | -48.43118 | 36947 ft | 454 kts | 5° |
| 2026-05-07 04:34 | -3.20799 | -48.42565 | 36952 ft | 454 kts | 5° |
| 2026-05-07 04:35 | -3.14474 | -48.42010 | 36665 ft | 458 kts | 5° |
| 2026-05-07 04:35 | -3.11298 | -48.41731 | 36420 ft | 459 kts | 5° |
| 2026-05-07 04:35 | -3.08116 | -48.41452 | 36173 ft | 459 kts | 5° |
| 2026-05-07 04:36 | -3.04920 | -48.41171 | 35588 ft | 463 kts | 5° |
| 2026-05-07 04:36 | -3.01690 | -48.40888 | 34757 ft | 470 kts | 5° |
| 2026-05-07 04:36 | -2.98423 | -48.40601 | 33995 ft | 473 kts | 5° |
| 2026-05-07 04:36 | -2.95130 | -48.40312 | 33168 ft | 475 kts | 5° |
| 2026-05-07 04:37 | -2.91837 | -48.40024 | 32413 ft | 475 kts | 5° |
| 2026-05-07 04:37 | -2.88535 | -48.39735 | 31602 ft | 478 kts | 5° |
| 2026-05-07 04:37 | -2.85228 | -48.39446 | 31036 ft | 475 kts | 6° |
| 2026-05-07 04:37 | -2.81941 | -48.39158 | 30405 ft | 473 kts | 6° |
| 2026-05-07 04:38 | -2.78674 | -48.38872 | 29794 ft | 471 kts | 6° |
| 2026-05-07 04:38 | -2.75430 | -48.38587 | 29259 ft | 465 kts | 6° |
| 2026-05-07 04:38 | -2.72220 | -48.38306 | 28711 ft | 461 kts | 6° |
| 2026-05-07 04:38 | -2.69042 | -48.38027 | 28143 ft | 456 kts | 6° |
| 2026-05-07 04:39 | -2.65894 | -48.37751 | 27593 ft | 452 kts | 6° |
| 2026-05-07 04:39 | -2.62772 | -48.37477 | 27044 ft | 448 kts | 6° |
| 2026-05-07 04:39 | -2.59676 | -48.37205 | 26496 ft | 445 kts | 6° |
| 2026-05-07 04:39 | -2.56601 | -48.36935 | 25923 ft | 443 kts | 6° |
| 2026-05-07 04:40 | -2.53550 | -48.36668 | 25370 ft | 440 kts | 6° |
| 2026-05-07 04:40 | -2.50556 | -48.36405 | 24844 ft | 436 kts | 6° |
| 2026-05-07 04:40 | -2.47540 | -48.36141 | 24317 ft | 433 kts | 6° |
| 2026-05-07 04:40 | -2.44542 | -48.35878 | 23781 ft | 431 kts | 6° |
| 2026-05-07 04:41 | -2.41561 | -48.35616 | 23197 ft | 428 kts | 6° |
| 2026-05-07 04:41 | -2.38609 | -48.35357 | 22664 ft | 423 kts | 6° |
| 2026-05-07 04:41 | -2.35691 | -48.35101 | 22132 ft | 419 kts | 6° |
| 2026-05-07 04:41 | -2.32803 | -48.34848 | 21602 ft | 414 kts | 6° |
| 2026-05-07 04:42 | -2.29946 | -48.34598 | 21077 ft | 410 kts | 6° |
| 2026-05-07 04:42 | -2.27116 | -48.34350 | 20544 ft | 407 kts | 6° |
| 2026-05-07 04:42 | -2.24309 | -48.34103 | 20029 ft | 403 kts | 6° |
| 2026-05-07 04:42 | -2.21518 | -48.33859 | 19508 ft | 400 kts | 6° |
| 2026-05-07 04:43 | -2.18749 | -48.33616 | 18973 ft | 398 kts | 6° |
| 2026-05-07 04:43 | -2.15999 | -48.33374 | 18447 ft | 396 kts | 6° |
| 2026-05-07 04:43 | -2.13265 | -48.33134 | 17881 ft | 394 kts | 6° |
| 2026-05-07 04:43 | -2.10561 | -48.32897 | 17422 ft | 388 kts | 6° |
| 2026-05-07 04:44 | -2.07886 | -48.32663 | 16917 ft | 384 kts | 6° |
| 2026-05-07 04:44 | -2.05240 | -48.32431 | 16418 ft | 380 kts | 6° |
| 2026-05-07 04:44 | -2.02619 | -48.32201 | 15921 ft | 376 kts | 6° |
| 2026-05-07 04:44 | -2.00023 | -48.31974 | 15430 ft | 373 kts | 6° |
| 2026-05-07 04:45 | -1.97446 | -48.31748 | 14941 ft | 370 kts | 6° |
| 2026-05-07 04:45 | -1.94888 | -48.31523 | 14429 ft | 368 kts | 6° |
| 2026-05-07 04:45 | -1.92350 | -48.31301 | 13959 ft | 365 kts | 6° |
| 2026-05-07 04:45 | -1.89824 | -48.31080 | 13461 ft | 362 kts | 6° |
| 2026-05-07 04:46 | -1.87331 | -48.30861 | 12990 ft | 358 kts | 6° |
| 2026-05-07 04:46 | -1.84863 | -48.30645 | 12525 ft | 354 kts | 6° |
| 2026-05-07 04:46 | -1.82416 | -48.30431 | 12058 ft | 351 kts | 6° |
| 2026-05-07 04:46 | -1.79996 | -48.30219 | 11599 ft | 348 kts | 7° |
| 2026-05-07 04:47 | -1.77594 | -48.30008 | 11141 ft | 345 kts | 7° |
| 2026-05-07 04:47 | -1.75210 | -48.29799 | 10689 ft | 343 kts | 7° |
| 2026-05-07 04:47 | -1.72847 | -48.29592 | 10356 ft | 336 kts | 7° |
| 2026-05-07 04:47 | -1.70561 | -48.29393 | 10236 ft | 323 kts | 7° |
| 2026-05-07 04:48 | -1.68368 | -48.29202 | 10126 ft | 310 kts | 7° |
| 2026-05-07 04:48 | -1.66252 | -48.29017 | 9907 ft | 302 kts | 7° |
| 2026-05-07 04:48 | -1.64184 | -48.28835 | 9683 ft | 294 kts | 7° |
| 2026-05-07 04:48 | -1.62157 | -48.28657 | 9335 ft | 291 kts | 7° |
| 2026-05-07 04:49 | -1.60824 | -48.28539 | 9099 ft | 290 kts | 7° |
| 2026-05-07 04:49 | -1.58825 | -48.28362 | 8735 ft | 287 kts | 7° |
| 2026-05-07 04:49 | -1.56840 | -48.28188 | 8379 ft | 285 kts | 7° |
| 2026-05-07 04:49 | -1.54867 | -48.28014 | 8017 ft | 284 kts | 7° |
| 2026-05-07 04:50 | -1.52905 | -48.27842 | 7660 ft | 282 kts | 7° |
| 2026-05-07 04:50 | -1.50296 | -48.27614 | 7183 ft | 281 kts | 7° |
| 2026-05-07 04:50 | -1.49009 | -48.27501 | 6948 ft | 280 kts | 7° |
| 2026-05-07 04:50 | -1.47070 | -48.27330 | 6592 ft | 279 kts | 7° |
| 2026-05-07 04:51 | -1.45136 | -48.27161 | 6224 ft | 279 kts | 7° |
| 2026-05-07 04:51 | -1.43210 | -48.26992 | 5866 ft | 277 kts | 7° |
| 2026-05-07 04:51 | -1.41297 | -48.26824 | 5508 ft | 275 kts | 7° |
| 2026-05-07 04:51 | -1.39392 | -48.26657 | 5174 ft | 274 kts | 7° |
| 2026-05-07 04:52 | -1.37500 | -48.26491 | 4831 ft | 273 kts | 7° |
| 2026-05-07 04:52 | -1.35611 | -48.26325 | 4470 ft | 272 kts | 7° |
| 2026-05-07 04:52 | -1.33732 | -48.26159 | 4141 ft | 269 kts | 7° |
| 2026-05-07 04:52 | -1.31874 | -48.25998 | 4023 ft | 267 kts | 5° |
| 2026-05-07 04:53 | -1.30086 | -48.26265 | 3931 ft | 258 kts | 337° |
| 2026-05-07 04:53 | -1.28697 | -48.27311 | 3827 ft | 248 kts | 307° |
| 2026-05-07 04:53 | -1.27878 | -48.28775 | 3725 ft | 236 kts | 294° |
| 2026-05-07 04:53 | -1.27268 | -48.30251 | 3630 ft | 224 kts | 291° |
| 2026-05-07 04:54 | -1.26698 | -48.31668 | 3461 ft | 217 kts | 292° |
| 2026-05-07 04:54 | -1.26106 | -48.33056 | 3180 ft | 217 kts | 294° |
| 2026-05-07 04:54 | -1.25751 | -48.34496 | 2935 ft | 213 kts | 265° |
| 2026-05-07 04:54 | -1.26220 | -48.35843 | 2657 ft | 208 kts | 229° |
| 2026-05-07 04:55 | -1.27171 | -48.36832 | 2599 ft | 188 kts | 223° |
| 2026-05-07 04:55 | -1.28067 | -48.37694 | 2454 ft | 171 kts | 222° |
| 2026-05-07 04:55 | -1.28890 | -48.38488 | 2229 ft | 162 kts | 223° |
| 2026-05-07 04:55 | -1.29696 | -48.39279 | 1867 ft | 162 kts | 223° |
| 2026-05-07 04:56 | -1.30483 | -48.40063 | 1685 ft | 160 kts | 224° |
| 2026-05-07 04:56 | -1.31273 | -48.40860 | 1711 ft | 163 kts | 224° |
| 2026-05-07 04:56 | -1.32070 | -48.41669 | 1633 ft | 164 kts | 224° |
| 2026-05-07 04:56 | -1.32839 | -48.42451 | 1449 ft | 151 kts | 224° |
| 2026-05-07 04:57 | -1.33560 | -48.43187 | 1255 ft | 148 kts | 224° |
| 2026-05-07 04:57 | -1.34281 | -48.43920 | 1038 ft | 147 kts | 225° |
| 2026-05-07 04:57 | -1.34998 | -48.44649 | 811 ft | 143 kts | 224° |
| 2026-05-07 04:57 | -1.35685 | -48.45342 | 588 ft | 140 kts | 224° |
| 2026-05-07 04:58 | -1.36363 | -48.46037 | 358 ft | 139 kts | 224° |
| 2026-05-07 04:58 | -1.37032 | -48.46715 | 156 ft | 136 kts | 223° |
| 2026-05-07 04:58 | -1.37682 | -48.47379 | 53 ft | 129 kts | 223° |
| 2026-05-07 04:58 | -1.38208 | -48.47899 | 49 ft | 69 kts | 225° |
| 2026-05-07 04:59 | -1.38359 | -48.48059 | 48 ft | 0 kts | 264° |
| 2026-05-07 04:59 | -1.38354 | -48.48078 | 48 ft | 0 kts | 295° |
| 2026-05-07 04:59 | -1.38352 | -48.48081 | 48 ft | 0 kts | 290° |
| 2026-05-07 04:59 | -1.38370 | -48.48091 | 45 ft | 9 kts | 197° |
| 2026-05-07 05:00 | -1.38453 | -48.48144 | 46 ft | 18 kts | 226° |
| 2026-05-07 05:00 | -1.38550 | -48.48242 | 46 ft | 18 kts | 225° |
| 2026-05-07 05:00 | -1.38594 | -48.48286 | 45 ft | 9 kts | 225° |
| 2026-05-07 05:00 | -1.38648 | -48.48329 | 44 ft | 10 kts | 188° |
| 2026-05-07 05:01 | -1.38668 | -48.48292 | 45 ft | 6 kts | 95° |
| 2026-05-07 05:01 | -1.38669 | -48.48248 | 46 ft | 6 kts | 92° |
| 2026-05-07 05:01 | -1.38671 | -48.48201 | 47 ft | 7 kts | 92° |
| 2026-05-07 05:01 | -1.38675 | -48.48146 | 48 ft | 9 kts | 95° |
| 2026-05-07 05:02 | -1.38677 | -48.48108 | 48 ft | 1 kts | 86° |
| 2026-05-07 05:02 | -1.38676 | -48.48097 | 49 ft | 3 kts | 85° |
| 2026-05-07 05:02 | -1.38675 | -48.48072 | 49 ft | 5 kts | 88° |
| 2026-05-07 05:02 | -1.38674 | -48.48040 | 50 ft | 4 kts | 89° |
| 2026-05-07 05:03 | -1.38673 | -48.48007 | 50 ft | 6 kts | 88° |
| 2026-05-07 05:03 | -1.38671 | -48.47961 | 51 ft | 7 kts | 88° |
| 2026-05-07 05:03 | -1.38671 | -48.47914 | 52 ft | 6 kts | 90° |
| 2026-05-07 05:03 | -1.38669 | -48.47866 | 51 ft | 8 kts | 88° |
| 2026-05-07 05:04 | -1.38674 | -48.47808 | 49 ft | 8 kts | 121° |
| 2026-05-07 05:04 | -1.38729 | -48.47798 | 55 ft | 9 kts | 186° |
| 2026-05-07 05:04 | -1.38798 | -48.47804 | 55 ft | 11 kts | 184° |
| 2026-05-07 05:04 | -1.38870 | -48.47810 | 54 ft | 10 kts | 185° |
| 2026-05-07 05:05 | -1.38932 | -48.47816 | 56 ft | 8 kts | 186° |
| 2026-05-07 05:05 | -1.38979 | -48.47821 | 54 ft | 6 kts | 187° |
| 2026-05-07 05:05 | -1.38999 | -48.47842 | 51 ft | 4 kts | 265° |
| 2026-05-07 05:05 | -1.38995 | -48.47878 | 54 ft | 5 kts | 277° |
| 2026-05-07 05:06 | -1.38994 | -48.47886 | 53 ft | 1 kts | 277° |
| 2026-05-07 05:06 | -1.38992 | -48.47902 | 56 ft | 3 kts | 278° |
| 2026-05-07 05:06 | -1.38992 | -48.47903 | 56 ft | 0 kts | 278° |